createdAt,value
2023-04-26T00:00:01.710Z,4.7890
2023-04-26T00:01:09.811Z,4.6513
2023-04-26T00:02:17.889Z,4.8040
2023-04-26T00:03:25.823Z,5.1685
2023-04-26T00:04:33.979Z,5.3264
2023-04-26T00:05:41.994Z,5.3254
2023-04-26T00:06:50.133Z,5.7860
2023-04-26T00:07:58.105Z,5.5256
2023-04-26T00:09:06.145Z,5.8101
2023-04-26T00:10:14.167Z,5.9554
2023-04-26T00:11:22.267Z,6.0241
2023-04-26T00:12:30.327Z,6.6884
2023-04-26T00:13:38.476Z,6.7061
2023-04-26T00:14:46.478Z,6.2658
2023-04-26T00:15:54.471Z,6.3050
2023-04-26T00:17:02.409Z,6.2919
2023-04-26T00:18:10.554Z,6.9705
2023-04-26T00:19:18.514Z,7.1452
2023-04-26T00:20:26.764Z,7.2817
2023-04-26T00:21:34.739Z,6.7226
2023-04-26T00:22:42.968Z,6.9206
2023-04-26T00:23:50.871Z,6.9230
2023-04-26T00:24:58.913Z,7.2963
2023-04-26T00:26:07.035Z,6.8045
2023-04-26T00:27:15.013Z,7.0030
2023-04-26T00:28:23.102Z,6.7724
2023-04-26T00:29:31.274Z,6.5498
2023-04-26T00:30:39.333Z,6.8689
2023-04-26T00:31:47.265Z,6.7156
2023-04-26T00:32:55.311Z,6.8441
2023-04-26T00:34:03.350Z,6.8940
2023-04-26T00:35:11.464Z,6.8068
2023-04-26T00:36:19.614Z,6.7840
2023-04-26T00:37:27.597Z,6.6443
2023-04-26T00:38:35.762Z,6.7550
2023-04-26T00:39:43.715Z,6.4289
2023-04-26T00:40:51.787Z,6.3073
2023-04-26T00:41:59.837Z,6.2328
2023-04-26T00:43:07.970Z,6.3880
2023-04-26T00:44:15.927Z,6.7795
2023-04-26T00:45:24.019Z,6.6210
2023-04-26T00:46:31.925Z,6.7521
2023-04-26T00:47:40.032Z,6.3871
2023-04-26T00:48:48.066Z,6.3471
2023-04-26T00:49:56.251Z,6.8361
2023-04-26T00:51:04.276Z,6.8882
2023-04-26T00:52:12.344Z,6.7007
2023-04-26T00:53:20.389Z,7.0533
2023-04-26T00:54:28.679Z,6.8478
2023-04-26T00:55:36.769Z,6.6743
2023-04-26T00:56:44.538Z,6.7844
2023-04-26T00:57:52.608Z,6.3298
2023-04-26T00:59:00.683Z,6.1815
2023-04-26T01:00:08.777Z,6.4187
2023-04-26T01:01:16.651Z,6.0949
2023-04-26T01:02:24.805Z,6.2107
2023-04-26T01:03:32.959Z,6.4657
2023-04-26T01:04:41.041Z,6.5535
2023-04-26T01:05:49.066Z,6.0556
2023-04-26T01:06:57.106Z,6.1028
2023-04-26T01:08:05.201Z,5.9915
2023-04-26T01:09:13.263Z,6.1191
2023-04-26T01:10:21.380Z,5.9843
2023-04-26T01:11:29.398Z,5.8826
2023-04-26T01:12:37.390Z,6.1098
2023-04-26T01:13:45.434Z,5.9788
2023-04-26T01:14:53.361Z,5.8924
2023-04-26T01:16:01.415Z,5.9347
2023-04-26T01:17:09.516Z,6.1920
2023-04-26T01:18:17.528Z,6.2241
2023-04-26T01:19:25.772Z,5.9507
2023-04-26T01:20:33.765Z,6.0326
2023-04-26T01:21:41.878Z,5.8954
2023-04-26T01:22:49.982Z,5.9516
2023-04-26T01:23:57.943Z,6.2017
2023-04-26T01:25:06.055Z,6.3553
2023-04-26T01:26:14.259Z,6.3762
2023-04-26T01:27:22.152Z,6.2773
2023-04-26T01:28:30.228Z,6.1290
2023-04-26T01:29:38.327Z,6.2954
2023-04-26T01:30:46.208Z,6.3433
2023-04-26T01:31:54.201Z,6.3991
2023-04-26T01:33:02.290Z,6.6548
2023-04-26T01:34:10.526Z,5.9464
2023-04-26T01:35:18.538Z,6.3811
2023-04-26T01:36:26.695Z,6.4005
2023-04-26T01:37:34.674Z,6.1479
2023-04-26T01:38:42.702Z,5.8628
2023-04-26T01:39:50.827Z,6.0307
2023-04-26T01:40:58.823Z,6.0784
2023-04-26T01:42:06.896Z,6.1806
2023-04-26T01:43:15.070Z,6.0596
2023-04-26T01:44:23.030Z,5.8681
2023-04-26T01:45:30.970Z,6.1358
2023-04-26T01:46:39.132Z,6.0148
2023-04-26T01:47:47.069Z,6.2001
2023-04-26T01:48:55.333Z,5.8309
2023-04-26T01:50:03.302Z,5.3158
2023-04-26T01:51:11.469Z,5.9205
2023-04-26T01:52:19.417Z,6.1386
2023-04-26T01:53:27.567Z,5.9201
2023-04-26T01:54:35.593Z,5.7368
2023-04-26T01:55:43.556Z,5.6618
2023-04-26T01:56:51.682Z,5.6927
2023-04-26T01:57:59.746Z,5.3836
2023-04-26T01:59:07.749Z,5.3673
2023-04-26T02:00:15.681Z,5.8839
2023-04-26T02:01:23.861Z,5.9931
2023-04-26T02:02:31.871Z,5.6389
2023-04-26T02:03:40.047Z,5.7513
2023-04-26T02:04:48.106Z,5.8605
2023-04-26T02:05:56.105Z,6.3522
2023-04-26T02:07:04.155Z,6.0727
2023-04-26T02:08:12.273Z,6.1742
2023-04-26T02:09:20.214Z,6.2564
2023-04-26T02:10:28.326Z,6.4812
2023-04-26T02:11:36.360Z,6.7111
2023-04-26T02:12:44.510Z,6.1719
2023-04-26T02:13:52.538Z,6.1443
2023-04-26T02:15:00.432Z,6.0534
2023-04-26T02:16:08.531Z,6.0607
2023-04-26T02:17:16.544Z,6.3726
2023-04-26T02:18:24.732Z,6.9721
2023-04-26T02:19:32.818Z,7.0626
2023-04-26T02:20:40.967Z,6.8780
2023-04-26T02:21:48.889Z,6.2743
2023-04-26T02:22:56.969Z,6.4692
2023-04-26T02:24:05.028Z,6.5888
2023-04-26T02:25:13.083Z,6.4721
2023-04-26T02:26:21.211Z,6.6006
2023-04-26T02:27:29.161Z,6.7163
2023-04-26T02:28:37.257Z,6.3554
2023-04-26T02:29:45.156Z,5.8600
2023-04-26T02:30:53.268Z,5.9845
2023-04-26T02:32:01.294Z,6.6694
2023-04-26T02:33:09.647Z,6.2030
2023-04-26T02:34:17.530Z,6.2844
2023-04-26T02:35:25.606Z,6.6425
2023-04-26T02:36:33.715Z,6.9407
2023-04-26T02:37:41.734Z,6.6773
2023-04-26T02:38:50.120Z,6.6046
2023-04-26T02:39:57.801Z,6.7098
2023-04-26T02:41:05.901Z,6.9132
2023-04-26T02:42:13.998Z,6.2852
2023-04-26T02:43:22.000Z,6.9945
2023-04-26T02:44:29.912Z,6.9090
2023-04-26T02:45:37.969Z,6.8290
2023-04-26T02:46:46.036Z,6.5450
2023-04-26T02:47:54.286Z,6.2534
2023-04-26T02:49:02.390Z,7.0710
2023-04-26T02:50:10.346Z,7.3111
2023-04-26T02:51:18.395Z,7.5924
2023-04-26T02:52:26.489Z,7.6586
2023-04-26T02:53:34.537Z,8.0291
2023-04-26T02:54:42.667Z,7.8435
2023-04-26T02:55:50.737Z,8.2950
2023-04-26T02:56:58.694Z,8.4934
2023-04-26T02:58:06.815Z,9.4159
2023-04-26T02:59:14.703Z,9.6322
2023-04-26T03:00:22.724Z,9.9201
2023-04-26T03:01:30.899Z,10.8955
2023-04-26T03:02:39.144Z,11.8038
2023-04-26T03:03:47.186Z,12.1950
2023-04-26T03:04:55.369Z,12.7794
2023-04-26T03:06:03.256Z,12.9332
2023-04-26T03:07:11.306Z,13.5151
2023-04-26T03:08:19.361Z,12.6106
2023-04-26T03:09:27.414Z,13.0945
2023-04-26T03:10:35.525Z,13.3808
2023-04-26T03:11:43.545Z,13.3637
2023-04-26T03:12:51.712Z,13.8639
2023-04-26T03:13:59.499Z,13.3873
2023-04-26T03:15:07.624Z,13.4903
2023-04-26T03:16:15.737Z,14.3262
2023-04-26T03:17:23.866Z,14.3308
2023-04-26T03:18:31.887Z,13.5797
2023-04-26T03:19:39.928Z,13.8579
2023-04-26T03:20:48.131Z,14.3503
2023-04-26T03:21:56.158Z,14.1759
2023-04-26T03:23:04.097Z,13.1740
2023-04-26T03:24:12.219Z,14.5534
2023-04-26T03:25:20.331Z,13.9152
2023-04-26T03:26:28.265Z,13.1820
2023-04-26T03:27:36.426Z,13.9864
2023-04-26T03:28:44.273Z,13.8326
2023-04-26T03:29:52.328Z,13.8556
2023-04-26T03:31:00.382Z,13.7858
2023-04-26T03:32:08.638Z,14.0441
2023-04-26T03:33:16.646Z,14.5275
2023-04-26T03:34:24.713Z,13.9543
2023-04-26T03:35:32.738Z,14.1418
2023-04-26T03:36:40.933Z,14.0521
2023-04-26T03:37:48.857Z,13.4318
2023-04-26T03:38:56.989Z,13.4098
2023-04-26T03:40:04.939Z,13.5235
2023-04-26T03:41:13.034Z,14.2570
2023-04-26T03:42:21.071Z,14.2337
2023-04-26T03:43:28.990Z,14.5256
2023-04-26T03:44:37.102Z,14.0173
2023-04-26T03:45:45.120Z,13.9328
2023-04-26T03:46:53.285Z,13.8373
2023-04-26T03:48:01.397Z,14.1830
2023-04-26T03:49:09.386Z,13.4189
2023-04-26T03:50:17.514Z,13.6001
2023-04-26T03:51:25.521Z,13.4490
2023-04-26T03:52:33.691Z,13.3140
2023-04-26T03:53:41.632Z,13.3190
2023-04-26T03:54:49.701Z,13.1220
2023-04-26T03:55:57.843Z,12.9564
2023-04-26T03:57:05.806Z,13.0724
2023-04-26T03:58:13.725Z,13.7456
2023-04-26T03:59:21.774Z,13.3411
2023-04-26T04:00:29.829Z,12.8814
2023-04-26T04:01:38.055Z,12.7273
2023-04-26T04:02:46.113Z,13.0654
2023-04-26T04:03:54.246Z,12.5631
2023-04-26T04:05:02.172Z,13.0461
2023-04-26T04:06:10.237Z,12.8006
2023-04-26T04:07:18.284Z,12.6212
2023-04-26T04:08:26.466Z,13.1631
2023-04-26T04:09:34.409Z,12.8598
2023-04-26T04:10:42.423Z,13.4622
2023-04-26T04:11:50.513Z,12.9483
2023-04-26T04:12:58.483Z,13.1832
2023-04-26T04:14:06.484Z,13.1153
2023-04-26T04:15:14.543Z,13.2534
2023-04-26T04:16:22.873Z,13.0670
2023-04-26T04:17:30.769Z,13.2954
2023-04-26T04:18:38.868Z,13.5379
2023-04-26T04:19:46.887Z,12.9898
2023-04-26T04:20:54.941Z,13.0938
2023-04-26T04:22:02.994Z,13.2907
2023-04-26T04:23:11.133Z,13.2792
2023-04-26T04:24:19.142Z,13.4345
2023-04-26T04:25:27.512Z,13.0959
2023-04-26T04:26:35.098Z,12.6712
2023-04-26T04:27:43.171Z,13.1456
2023-04-26T04:28:51.347Z,12.6205
2023-04-26T04:29:59.488Z,13.1676
2023-04-26T04:31:07.640Z,13.1388
2023-04-26T04:32:15.481Z,13.2384
2023-04-26T04:33:23.668Z,13.3410
2023-04-26T04:34:31.595Z,13.2755
2023-04-26T04:35:39.674Z,14.0058
2023-04-26T04:36:47.729Z,13.7567
2023-04-26T04:37:55.939Z,13.5965
2023-04-26T04:39:03.857Z,13.0629
2023-04-26T04:40:12.126Z,13.5691
2023-04-26T04:41:19.872Z,13.9505
2023-04-26T04:42:27.905Z,14.6315
2023-04-26T04:43:36.154Z,14.2131
2023-04-26T04:44:44.128Z,14.3557
2023-04-26T04:45:52.310Z,14.1332
2023-04-26T04:47:00.388Z,14.3593
2023-04-26T04:48:08.369Z,14.0131
2023-04-26T04:49:16.513Z,13.6387
2023-04-26T04:50:24.432Z,13.8345
2023-04-26T04:51:32.495Z,14.0700
2023-04-26T04:52:40.586Z,14.0308
2023-04-26T04:53:48.569Z,14.6023
2023-04-26T04:54:56.795Z,14.0135
2023-04-26T04:56:04.557Z,13.8393
2023-04-26T04:57:12.626Z,14.0036
2023-04-26T04:58:20.706Z,14.5705
2023-04-26T04:59:28.809Z,14.2386
2023-04-26T05:00:36.895Z,13.4506
2023-04-26T05:01:45.140Z,13.5519
2023-04-26T05:02:53.164Z,13.7131
2023-04-26T05:04:01.277Z,14.4520
2023-04-26T05:05:09.392Z,13.9644
2023-04-26T05:06:17.168Z,13.6542
2023-04-26T05:07:26.362Z,14.3417
2023-04-26T05:08:38.179Z,14.1794
2023-04-26T05:09:46.108Z,14.3304
2023-04-26T05:10:54.148Z,14.6762
2023-04-26T05:12:02.219Z,13.5266
2023-04-26T05:13:10.458Z,13.7135
2023-04-26T05:14:18.575Z,13.5580
2023-04-26T05:15:26.564Z,12.3140
2023-04-26T05:16:34.688Z,12.5395
2023-04-26T05:17:42.631Z,12.3451
2023-04-26T05:18:50.695Z,11.8129
2023-04-26T05:19:58.893Z,12.1929
2023-04-26T05:21:06.807Z,11.4283
2023-04-26T05:22:14.812Z,12.1539
2023-04-26T05:23:22.930Z,11.9194
2023-04-26T05:24:30.829Z,12.1695
2023-04-26T05:25:38.900Z,12.7631
2023-04-26T05:26:46.987Z,13.1335
2023-04-26T05:27:55.124Z,12.1874
2023-04-26T05:29:03.427Z,13.0506
2023-04-26T05:30:11.274Z,12.5163
2023-04-26T05:31:19.340Z,12.1601
2023-04-26T05:32:27.414Z,12.9721
2023-04-26T05:33:35.428Z,13.7754
2023-04-26T05:34:43.471Z,12.4336
2023-04-26T05:35:51.500Z,12.2448
2023-04-26T05:36:59.776Z,13.1164
2023-04-26T05:38:07.645Z,12.4140
2023-04-26T05:39:15.562Z,13.5121
2023-04-26T05:40:23.611Z,13.4726
2023-04-26T05:41:31.692Z,13.1398
2023-04-26T05:42:39.894Z,13.3320
2023-04-26T05:43:48.019Z,13.3948
2023-04-26T05:44:56.003Z,13.2317
2023-04-26T05:46:04.083Z,13.7559
2023-04-26T05:47:12.037Z,14.3545
2023-04-26T05:48:20.113Z,13.7786
2023-04-26T05:49:28.200Z,13.8169
2023-04-26T05:50:37.690Z,12.8266
2023-04-26T05:51:49.146Z,13.2591
2023-04-26T05:52:57.112Z,12.9863
2023-04-26T05:54:05.180Z,12.5311
2023-04-26T05:55:13.346Z,12.8716
2023-04-26T05:56:21.408Z,12.8315
2023-04-26T05:57:29.539Z,12.3480
2023-04-26T05:58:37.507Z,11.7842
2023-04-26T05:59:45.558Z,13.0097
2023-04-26T06:00:53.775Z,12.2766
2023-04-26T06:02:01.764Z,12.6148
2023-04-26T06:03:10.093Z,13.0688
2023-04-26T06:04:17.918Z,13.6604
2023-04-26T06:05:26.040Z,13.2312
2023-04-26T06:06:33.998Z,12.6946
2023-04-26T06:07:41.861Z,12.7904
2023-04-26T06:08:49.906Z,13.0496
2023-04-26T06:09:57.982Z,13.1580
2023-04-26T06:11:06.206Z,12.4969
2023-04-26T06:12:14.256Z,12.4724
2023-04-26T06:13:22.321Z,12.0778
2023-04-26T06:14:30.952Z,12.4014
2023-04-26T06:15:38.386Z,12.1178
2023-04-26T06:16:46.699Z,12.2160
2023-04-26T06:17:54.606Z,12.5496
2023-04-26T06:19:02.549Z,12.6137
2023-04-26T06:20:10.608Z,12.4342
2023-04-26T06:21:18.683Z,12.9769
2023-04-26T06:22:26.607Z,12.8307
2023-04-26T06:23:34.722Z,13.2705
2023-04-26T06:24:42.746Z,14.5123
2023-04-26T06:25:51.002Z,13.6597
2023-04-26T06:26:58.894Z,14.3477
2023-04-26T06:28:07.012Z,14.6589
2023-04-26T06:29:15.048Z,14.2749
2023-04-26T06:30:23.111Z,13.9711
2023-04-26T06:31:31.282Z,13.9169
2023-04-26T06:32:39.259Z,12.5755
2023-04-26T06:33:47.286Z,12.3573
2023-04-26T06:34:55.400Z,12.3442
2023-04-26T06:36:03.359Z,12.3671
2023-04-26T06:37:11.334Z,13.1250
2023-04-26T06:38:19.355Z,13.0171
2023-04-26T06:39:27.412Z,13.5448
2023-04-26T06:40:35.665Z,14.1770
2023-04-26T06:41:43.795Z,15.1576
2023-04-26T06:42:51.700Z,14.7511
2023-04-26T06:43:59.746Z,14.7472
2023-04-26T06:45:07.827Z,14.7387
2023-04-26T06:46:15.973Z,13.8314
2023-04-26T06:47:23.988Z,14.4932
2023-04-26T06:48:32.133Z,13.9006
2023-04-26T06:49:40.055Z,14.2166
2023-04-26T06:50:48.133Z,15.1446
2023-04-26T06:51:56.127Z,15.1513
2023-04-26T06:53:04.111Z,14.9940
2023-04-26T06:54:12.148Z,14.4566
2023-04-26T06:55:20.417Z,14.1510
2023-04-26T06:56:28.379Z,13.9440
2023-04-26T06:57:36.639Z,14.1823
2023-04-26T06:58:44.547Z,14.4765
2023-04-26T06:59:52.535Z,14.3486
2023-04-26T07:01:00.620Z,14.8883
2023-04-26T07:02:08.902Z,14.6263
2023-04-26T07:03:16.887Z,16.0202
2023-04-26T07:04:24.920Z,17.4176
2023-04-26T07:05:32.731Z,17.4602
2023-04-26T07:06:40.768Z,17.5174
2023-04-26T07:07:48.845Z,17.4572
2023-04-26T07:08:57.440Z,18.1167
2023-04-26T07:10:05.043Z,18.3495
2023-04-26T07:11:13.252Z,17.1572
2023-04-26T07:12:21.251Z,17.5914
2023-04-26T07:13:29.336Z,18.4023
2023-04-26T07:14:39.495Z,17.7370
2023-04-26T07:15:50.308Z,16.4827
2023-04-26T07:16:58.336Z,15.7264
2023-04-26T07:18:06.450Z,16.2129
2023-04-26T07:19:14.290Z,15.7512
2023-04-26T07:20:22.383Z,15.7595
2023-04-26T07:21:30.396Z,17.1035
2023-04-26T07:22:38.593Z,17.1882
2023-04-26T07:23:46.658Z,18.0834
2023-04-26T07:24:54.690Z,18.6377
2023-04-26T07:26:02.799Z,18.5687
2023-04-26T07:27:10.826Z,18.0816
2023-04-26T07:28:18.798Z,17.9106
2023-04-26T07:29:27.190Z,18.2031
2023-04-26T07:30:34.981Z,19.1126
2023-04-26T07:31:43.084Z,18.7427
2023-04-26T07:32:51.183Z,18.8866
2023-04-26T07:33:59.004Z,18.8818
2023-04-26T07:35:07.049Z,19.6463
2023-04-26T07:36:15.123Z,18.8524
2023-04-26T07:37:23.477Z,19.2547
2023-04-26T07:38:31.347Z,18.8232
2023-04-26T07:39:39.401Z,18.3545
2023-04-26T07:40:47.458Z,19.4199
2023-04-26T07:41:55.542Z,19.3667
2023-04-26T07:43:03.618Z,18.0488
2023-04-26T07:44:11.724Z,18.5314
2023-04-26T07:45:19.619Z,18.7911
2023-04-26T07:46:27.793Z,17.7793
2023-04-26T07:47:35.824Z,17.7088
2023-04-26T07:48:43.756Z,16.7467
2023-04-26T07:49:51.763Z,16.8717
2023-04-26T07:50:59.831Z,17.0558
2023-04-26T07:52:08.092Z,16.2529
2023-04-26T07:53:16.196Z,16.7097
2023-04-26T07:54:24.156Z,17.2320
2023-04-26T07:55:32.165Z,17.1096
2023-04-26T07:56:40.240Z,16.9845
2023-04-26T07:57:48.283Z,16.8887
2023-04-26T07:58:56.569Z,16.8118
2023-04-26T08:00:04.594Z,16.2048
2023-04-26T08:01:12.447Z,16.8055
2023-04-26T08:02:27.107Z,16.1266
2023-04-26T08:03:33.532Z,16.5729
2023-04-26T08:04:41.588Z,16.3586
2023-04-26T08:05:49.600Z,15.8267
2023-04-26T08:06:57.673Z,15.1352
2023-04-26T08:08:05.668Z,16.0438
2023-04-26T08:09:14.192Z,15.3813
2023-04-26T08:10:21.804Z,15.3920
2023-04-26T08:11:29.893Z,15.5595
2023-04-26T08:12:37.872Z,15.6535
2023-04-26T08:13:45.989Z,15.9072
2023-04-26T08:14:53.986Z,15.9137
2023-04-26T08:16:02.034Z,15.2928
2023-04-26T08:17:10.400Z,15.5145
2023-04-26T08:18:18.087Z,15.0815
2023-04-26T08:19:26.071Z,15.3908
2023-04-26T08:20:34.099Z,14.7419
2023-04-26T08:21:42.324Z,15.1519
2023-04-26T08:22:50.413Z,14.8770
2023-04-26T08:23:58.491Z,14.5290
2023-04-26T08:25:06.596Z,15.5075
2023-04-26T08:26:14.792Z,14.4175
2023-04-26T08:27:22.587Z,15.2950
2023-04-26T08:28:30.619Z,15.4664
2023-04-26T08:29:38.683Z,16.8803
2023-04-26T08:30:46.818Z,17.4174
2023-04-26T08:31:54.729Z,17.8558
2023-04-26T08:33:02.727Z,16.6490
2023-04-26T08:34:10.881Z,16.4156
2023-04-26T08:35:18.805Z,16.6435
2023-04-26T08:36:26.981Z,15.2177
2023-04-26T08:37:35.086Z,15.6649
2023-04-26T08:38:43.093Z,16.2137
2023-04-26T08:39:51.177Z,16.5250
2023-04-26T08:40:59.394Z,16.6188
2023-04-26T08:42:07.249Z,16.3630
2023-04-26T08:43:15.326Z,16.0479
2023-04-26T08:44:23.443Z,16.2735
2023-04-26T08:45:31.505Z,16.1570
2023-04-26T08:46:39.570Z,16.9916
2023-04-26T08:47:47.451Z,15.9683
2023-04-26T08:48:55.455Z,15.4247
2023-04-26T08:50:03.520Z,15.7040
2023-04-26T08:51:11.705Z,16.2468
2023-04-26T08:52:19.903Z,15.4968
2023-04-26T08:53:27.752Z,16.3569
2023-04-26T08:54:35.811Z,16.0437
2023-04-26T08:55:43.864Z,16.1885
2023-04-26T08:56:52.061Z,15.8324
2023-04-26T08:57:59.950Z,16.0434
2023-04-26T08:59:07.958Z,16.5345
2023-04-26T09:00:16.070Z,16.3926
2023-04-26T09:01:24.107Z,15.6435
2023-04-26T09:02:32.150Z,15.6181
2023-04-26T09:03:40.226Z,16.0102
2023-04-26T09:04:48.159Z,15.1907
2023-04-26T09:05:56.303Z,15.3692
2023-04-26T09:07:04.370Z,16.4500
2023-04-26T09:08:12.437Z,16.5168
2023-04-26T09:09:20.445Z,15.9783
2023-04-26T09:10:28.517Z,16.0269
2023-04-26T09:11:36.542Z,16.2770
2023-04-26T09:12:44.730Z,16.7076
2023-04-26T09:13:52.911Z,15.8168
2023-04-26T09:15:00.830Z,15.1823
2023-04-26T09:16:08.779Z,14.9645
2023-04-26T09:17:16.651Z,15.5858
2023-04-26T09:18:24.710Z,16.6204
2023-04-26T09:19:32.794Z,16.0647
2023-04-26T09:20:41.035Z,15.8476
2023-04-26T09:21:49.006Z,15.0660
2023-04-26T09:22:57.031Z,15.1473
2023-04-26T09:24:05.153Z,14.6352
2023-04-26T09:25:13.180Z,15.0165
2023-04-26T09:26:21.164Z,14.2078
2023-04-26T09:27:29.295Z,13.8472
2023-04-26T09:28:37.208Z,13.8407
2023-04-26T09:29:45.357Z,13.9144
2023-04-26T09:30:53.519Z,13.8639
2023-04-26T09:32:01.512Z,14.1313
2023-04-26T09:33:09.568Z,14.3589
2023-04-26T09:34:17.474Z,14.1225
2023-04-26T09:35:25.572Z,14.1360
2023-04-26T09:36:33.683Z,14.0620
2023-04-26T09:37:54.346Z,13.4230
2023-04-26T09:38:54.634Z,14.3655
2023-04-26T09:40:02.759Z,14.2390
2023-04-26T09:41:10.761Z,13.3822
2023-04-26T09:42:18.902Z,13.4558
2023-04-26T09:43:26.877Z,12.9492
2023-04-26T09:44:34.952Z,12.6306
2023-04-26T09:45:42.868Z,12.6567
2023-04-26T09:46:50.962Z,12.3951
2023-04-26T09:47:59.030Z,12.4900
2023-04-26T09:49:07.264Z,12.3662
2023-04-26T09:50:15.197Z,12.3794
2023-04-26T09:51:23.280Z,12.0301
2023-04-26T09:52:31.287Z,11.9907
2023-04-26T09:53:39.410Z,12.2777
2023-04-26T09:54:47.427Z,12.2441
2023-04-26T09:55:55.468Z,11.8357
2023-04-26T09:57:03.477Z,11.6096
2023-04-26T09:58:11.475Z,11.8492
2023-04-26T09:59:19.667Z,11.4810
2023-04-26T10:00:27.539Z,11.5312
2023-04-26T10:01:35.723Z,11.7367
2023-04-26T10:02:43.760Z,11.5288
2023-04-26T10:03:51.989Z,11.3925
2023-04-26T10:05:00.203Z,11.2629
2023-04-26T10:06:07.936Z,11.9476
2023-04-26T10:07:16.016Z,11.1279
2023-04-26T10:08:24.019Z,11.1067
2023-04-26T10:09:32.102Z,11.2069
2023-04-26T10:10:40.301Z,11.2669
2023-04-26T10:11:48.187Z,11.1370
2023-04-26T10:12:56.248Z,10.7545
2023-04-26T10:14:04.514Z,11.0098
2023-04-26T10:15:12.238Z,10.1072
2023-04-26T10:16:20.355Z,10.0327
2023-04-26T10:17:28.337Z,10.3775
2023-04-26T10:18:36.550Z,10.5825
2023-04-26T10:19:44.561Z,9.7036
2023-04-26T10:20:52.625Z,9.2894
2023-04-26T10:22:00.843Z,9.9897
2023-04-26T10:23:08.697Z,9.7236
2023-04-26T10:24:16.780Z,9.7191
2023-04-26T10:25:25.029Z,9.9286
2023-04-26T10:26:32.885Z,8.8739
2023-04-26T10:27:41.070Z,9.3597
2023-04-26T10:28:49.791Z,9.0201
2023-04-26T10:30:01.764Z,9.0379
2023-04-26T10:31:09.826Z,8.6132
2023-04-26T10:32:17.929Z,8.6307
2023-04-26T10:33:26.122Z,8.4580
2023-04-26T10:34:34.102Z,8.2553
2023-04-26T10:35:42.165Z,8.1703
2023-04-26T10:36:50.258Z,8.0673
2023-04-26T10:37:58.300Z,7.9521
2023-04-26T10:39:06.403Z,7.9631
2023-04-26T10:40:14.401Z,7.7370
2023-04-26T10:41:22.508Z,6.5961
2023-04-26T10:42:30.495Z,7.1180
2023-04-26T10:43:38.547Z,6.7390
2023-04-26T10:44:46.501Z,6.9605
2023-04-26T10:45:54.529Z,6.8387
2023-04-26T10:47:02.621Z,6.6500
2023-04-26T10:48:10.874Z,6.5411
2023-04-26T10:49:18.825Z,6.8585
2023-04-26T10:50:27.029Z,7.1445
2023-04-26T10:51:34.965Z,7.0243
2023-04-26T10:52:42.985Z,6.6865
2023-04-26T10:53:51.247Z,6.4743
2023-04-26T10:54:59.152Z,6.1000
2023-04-26T10:56:07.154Z,6.1511
2023-04-26T10:57:15.270Z,6.1647
2023-04-26T10:58:23.376Z,5.9702
2023-04-26T10:59:43.543Z,5.5689
2023-04-26T11:00:44.108Z,5.0258
2023-04-26T11:01:52.408Z,5.2000
2023-04-26T11:03:00.393Z,5.5599
2023-04-26T11:04:08.586Z,5.4161
2023-04-26T11:05:16.495Z,5.7262
2023-04-26T11:06:24.502Z,5.3519
2023-04-26T11:07:32.689Z,4.7327
2023-04-26T11:08:40.616Z,4.2744
2023-04-26T11:09:48.690Z,4.4288
2023-04-26T11:10:56.720Z,5.0592
2023-04-26T11:12:04.872Z,5.7336
2023-04-26T11:13:12.794Z,4.7823
2023-04-26T11:14:20.759Z,5.2518
2023-04-26T11:15:28.830Z,5.0939
2023-04-26T11:16:37.100Z,5.3339
2023-04-26T11:17:45.088Z,5.3370
2023-04-26T11:18:53.377Z,4.6622
2023-04-26T11:20:01.176Z,4.7176
2023-04-26T11:21:09.453Z,4.9168
2023-04-26T11:22:17.350Z,4.7512
2023-04-26T11:23:25.572Z,5.1281
2023-04-26T11:24:33.552Z,5.1762
2023-04-26T11:25:41.661Z,4.9578
2023-04-26T11:26:49.568Z,5.3682
2023-04-26T11:27:57.515Z,4.8324
2023-04-26T11:29:05.583Z,4.8088
2023-04-26T11:30:13.678Z,5.2088
2023-04-26T11:31:21.839Z,4.9574
2023-04-26T11:32:29.853Z,4.7118
2023-04-26T11:33:38.005Z,5.2601
2023-04-26T11:34:45.975Z,5.4181
2023-04-26T11:35:54.103Z,5.0627
2023-04-26T11:37:02.144Z,5.2032
2023-04-26T11:38:10.140Z,5.2556
2023-04-26T11:39:18.177Z,4.8204
2023-04-26T11:40:26.387Z,4.7348
2023-04-26T11:41:34.310Z,5.0183
2023-04-26T11:42:42.273Z,5.2205
2023-04-26T11:43:50.332Z,4.6232
2023-04-26T11:44:58.443Z,4.7010
2023-04-26T11:46:06.532Z,4.7646
2023-04-26T11:47:14.665Z,4.2358
2023-04-26T11:48:22.720Z,4.1604
2023-04-26T11:49:30.699Z,4.1352
2023-04-26T11:50:38.749Z,4.6543
2023-04-26T11:51:46.817Z,4.3986
2023-04-26T11:52:54.907Z,4.4193
2023-04-26T11:54:02.907Z,4.5972
2023-04-26T11:55:11.115Z,4.3307
2023-04-26T11:56:19.056Z,4.4818
2023-04-26T11:57:26.943Z,4.0680
2023-04-26T11:58:35.038Z,4.2226
2023-04-26T11:59:43.065Z,4.1352
2023-04-26T12:00:51.245Z,4.3086
2023-04-26T12:01:59.325Z,4.6600
2023-04-26T12:03:07.600Z,4.5263
2023-04-26T12:04:15.697Z,4.8040
2023-04-26T12:05:23.520Z,4.9296
2023-04-26T12:06:31.502Z,4.8724
2023-04-26T12:07:39.531Z,4.7033
2023-04-26T12:08:47.608Z,4.4639
2023-04-26T12:09:55.681Z,5.1468
2023-04-26T12:11:03.664Z,5.0949
2023-04-26T12:12:11.716Z,4.7962
2023-04-26T12:13:19.700Z,4.8142
2023-04-26T12:14:27.775Z,4.7787
2023-04-26T12:15:35.987Z,4.7019
2023-04-26T12:16:43.950Z,5.1235
2023-04-26T12:17:52.063Z,4.6827
2023-04-26T12:19:00.095Z,4.5649
2023-04-26T12:20:08.216Z,4.5669
2023-04-26T12:21:16.230Z,4.5552
2023-04-26T12:22:24.246Z,4.5892
2023-04-26T12:23:32.301Z,4.0166
2023-04-26T12:24:40.357Z,3.8985
2023-04-26T12:25:48.464Z,4.1952
2023-04-26T12:26:56.414Z,3.9883
2023-04-26T12:28:04.458Z,4.2913
2023-04-26T12:29:12.508Z,4.2473
2023-04-26T12:30:20.674Z,3.8603
2023-04-26T12:31:28.740Z,4.3758
2023-04-26T12:32:36.816Z,4.2259
2023-04-26T12:33:44.844Z,4.1874
2023-04-26T12:34:53.065Z,3.9749
2023-04-26T12:36:00.921Z,4.0848
2023-04-26T12:37:08.986Z,4.3908
2023-04-26T12:38:17.106Z,4.1643
2023-04-26T12:39:25.227Z,4.1386
2023-04-26T12:40:33.144Z,4.2182
2023-04-26T12:41:41.088Z,4.3372
2023-04-26T12:42:49.156Z,4.4616
2023-04-26T12:43:57.242Z,4.1008
2023-04-26T12:45:05.359Z,4.3595
2023-04-26T12:46:13.699Z,4.2279
2023-04-26T12:47:21.931Z,4.2947
2023-04-26T12:48:29.518Z,4.3197
2023-04-26T12:49:37.666Z,4.4481
2023-04-26T12:50:45.646Z,4.2522
2023-04-26T12:51:53.685Z,4.0861
2023-04-26T12:53:01.969Z,4.0735
2023-04-26T12:54:09.854Z,4.5338
2023-04-26T12:55:17.960Z,3.8778
2023-04-26T12:56:25.825Z,3.9126
2023-04-26T12:57:33.896Z,3.7928
2023-04-26T12:58:41.925Z,3.9695
2023-04-26T12:59:50.077Z,3.8902
2023-04-26T13:00:58.212Z,4.0680
2023-04-26T13:02:06.344Z,4.0341
2023-04-26T13:03:14.984Z,3.9699
2023-04-26T13:04:22.451Z,4.1177
2023-04-26T13:05:30.341Z,3.8539
2023-04-26T13:06:38.626Z,3.5999
2023-04-26T13:07:46.475Z,3.5126
2023-04-26T13:08:54.549Z,3.5246
2023-04-26T13:10:02.732Z,3.5004
2023-04-26T13:11:10.553Z,3.2725
2023-04-26T13:12:18.661Z,3.4842
2023-04-26T13:13:39.976Z,4.0371
2023-04-26T13:14:39.690Z,3.8276
2023-04-26T13:15:47.780Z,3.8514
2023-04-26T13:16:55.760Z,3.8989
2023-04-26T13:18:04.095Z,3.5015
2023-04-26T13:19:11.806Z,3.6961
2023-04-26T13:20:19.961Z,4.0434
2023-04-26T13:21:28.038Z,4.1100
2023-04-26T13:22:36.095Z,3.8693
2023-04-26T13:23:44.156Z,3.9431
2023-04-26T13:24:52.142Z,4.1866
2023-04-26T13:26:00.134Z,4.0923
2023-04-26T13:27:08.225Z,3.8329
2023-04-26T13:28:16.571Z,4.0956
2023-04-26T13:29:24.519Z,4.3446
2023-04-26T13:30:32.494Z,4.0065
2023-04-26T13:31:40.517Z,3.7686
2023-04-26T13:32:48.550Z,3.7068
2023-04-26T13:33:56.634Z,3.9820
2023-04-26T13:35:04.739Z,3.7765
2023-04-26T13:36:12.747Z,4.5100
2023-04-26T13:37:20.778Z,4.4578
2023-04-26T13:38:29.810Z,4.2202
2023-04-26T13:39:41.659Z,4.5574
2023-04-26T13:40:49.768Z,4.5091
2023-04-26T13:41:57.765Z,4.4846
2023-04-26T13:43:05.927Z,4.5452
2023-04-26T13:44:14.125Z,3.8113
2023-04-26T13:45:22.036Z,3.9322
2023-04-26T13:46:30.166Z,4.2434
2023-04-26T13:47:38.201Z,4.5538
2023-04-26T13:48:46.287Z,4.4036
2023-04-26T13:49:54.245Z,4.2432
2023-04-26T13:51:03.583Z,4.0685
2023-04-26T13:52:15.291Z,4.2118
2023-04-26T13:53:23.227Z,4.1680
2023-04-26T13:54:31.267Z,4.1485
2023-04-26T13:55:39.328Z,4.0432